Time;durP1;ratioP1;P1;durP2;ratioP2;P2;SDS_P1;SDS_P2;PMS_P1;PMS_P2;Temp;Humidity;BMP_temperature;BMP_pressure;BME280_temperature;BME280_humidity;BME280_pressure;Samples;Min_cycle;Max_cycle;Signal;HPM_P1;HPM_P2
2020/12/12 00:00:28;;;;;;;23.95;11.02;;;8.50;87.20;;;;;;5023278;28;20427;-50
2020/12/12 00:02:53;;;;;;;22.70;9.77;;;8.60;87.20;;;;;;5016585;28;20029;-50
2020/12/12 00:05:19;;;;;;;20.85;9.60;;;8.60;87.20;;;;;;5029751;28;20030;-50
2020/12/12 00:07:45;;;;;;;24.38;11.02;;;8.60;87.20;;;;;;5035927;28;20029;-51
2020/12/12 00:10:11;;;;;;;19.35;9.75;;;8.60;87.30;;;;;;5016690;28;20034;-51
2020/12/12 00:12:36;;;;;;;21.30;9.93;;;8.50;87.20;;;;;;5016519;28;20026;-50
2020/12/12 00:15:05;;;;;;;22.67;9.48;;;8.60;87.30;;;;;;5032473;28;20040;-51
2020/12/12 00:17:30;;;;;;;25.63;9.85;;;8.60;87.30;;;;;;5035316;28;20072;-51
2020/12/12 00:19:56;;;;;;;24.17;9.30;;;8.60;87.30;;;;;;5035906;28;20038;-51
2020/12/12 00:22:22;;;;;;;20.58;9.48;;;8.60;87.30;;;;;;5036210;28;20035;-50
2020/12/12 00:24:47;;;;;;;20.38;9.02;;;8.60;87.40;;;;;;5025755;28;20033;-51
2020/12/12 00:27:13;;;;;;;22.30;9.35;;;8.60;87.40;;;;;;5016206;28;20036;-50
2020/12/12 00:29:38;;;;;;;21.30;9.43;;;8.60;87.40;;;;;;5015973;28;20367;-51
2020/12/12 00:32:04;;;;;;;27.05;10.57;;;8.60;87.50;;;;;;5016335;28;20022;-51
2020/12/12 00:34:30;;;;;;;24.00;10.57;;;8.50;87.40;;;;;;5021373;28;20053;-51
2020/12/12 00:36:56;;;;;;;26.02;10.13;;;8.60;87.50;;;;;;5035855;28;20462;-51
2020/12/12 00:39:22;;;;;;;22.58;9.30;;;8.60;87.50;;;;;;5035573;28;20038;-50
2020/12/12 00:41:48;;;;;;;18.40;8.43;;;8.60;87.60;;;;;;5034834;28;20163;-51
2020/12/12 00:44:15;;;;;;;22.75;9.90;;;8.50;87.50;;;;;;5018964;28;20358;-51
2020/12/12 00:46:41;;;;;;;25.45;10.02;;;8.60;87.60;;;;;;5035093;28;20026;-50
2020/12/12 00:49:07;;;;;;;22.77;9.30;;;8.60;87.70;;;;;;5034691;28;20044;-51
2020/12/12 00:51:33;;;;;;;21.60;8.68;;;8.60;87.60;;;;;;5035654;28;20026;-51
2020/12/12 00:53:59;;;;;;;22.60;8.85;;;8.60;87.60;;;;;;5033835;28;20348;-51
2020/12/12 00:56:25;;;;;;;22.38;9.25;;;8.60;87.60;;;;;;5015962;28;20444;-50
2020/12/12 00:58:51;;;;;;;21.25;9.93;;;8.60;87.70;;;;;;5015314;28;20033;-51
2020/12/12 01:01:18;;;;;;;21.67;9.30;;;8.60;87.70;;;;;;5015526;28;20025;-51
2020/12/12 01:03:45;;;;;;;22.90;9.55;;;8.60;87.70;;;;;;5015840;28;20026;-51
2020/12/12 01:06:15;;;;;;;21.15;9.68;;;8.60;87.80;;;;;;5015380;28;20519;-51
2020/12/12 01:08:42;;;;;;;21.60;9.10;;;8.60;87.80;;;;;;5015497;28;20088;-51
2020/12/12 01:11:08;;;;;;;21.38;10.00;;;8.50;87.70;;;;;;5027251;28;20065;-50
2020/12/12 01:13:34;;;;;;;21.52;10.20;;;8.50;87.70;;;;;;5029219;28;20084;-51
2020/12/12 01:16:11;;;;;;;20.30;10.80;;;8.60;87.80;;;;;;5032224;28;20451;-50
2020/12/12 01:18:37;;;;;;;24.33;10.32;;;8.50;87.80;;;;;;5035025;28;20050;-51
2020/12/12 01:21:03;;;;;;;25.05;10.88;;;8.50;87.70;;;;;;5026801;28;20022;-51
2020/12/12 01:23:29;;;;;;;23.17;10.13;;;8.60;87.80;;;;;;5015311;28;20066;-50
2020/12/12 01:25:55;;;;;;;20.23;8.95;;;8.60;87.80;;;;;;5031365;28;20056;-51
2020/12/12 01:28:21;;;;;;;19.77;9.55;;;8.60;87.80;;;;;;5034533;28;20052;-51
2020/12/12 01:30:49;;;;;;;18.17;8.52;;;8.60;87.90;;;;;;5034945;28;20026;-51
2020/12/12 01:33:15;;;;;;;20.23;9.48;;;8.60;87.90;;;;;;5034796;28;20520;-51
2020/12/12 01:35:42;;;;;;;20.05;8.90;;;8.60;87.90;;;;;;5019676;28;20072;-50
2020/12/12 01:38:09;;;;;;;22.08;8.48;;;8.60;87.90;;;;;;5022246;28;20046;-50
2020/12/12 01:40:34;;;;;;;19.65;9.40;;;8.60;88.00;;;;;;5014672;28;20052;-51
2020/12/12 01:43:00;;;;;;;21.25;9.55;;;8.60;88.00;;;;;;5015107;28;20108;-50
2020/12/12 01:45:25;;;;;;;17.63;8.95;;;8.60;88.10;;;;;;5026422;28;20107;-51
2020/12/12 01:47:51;;;;;;;26.10;10.30;;;8.50;88.10;;;;;;5034340;28;20363;-51
2020/12/12 01:50:17;;;;;;;22.88;10.00;;;8.50;87.90;;;;;;5034656;28;20033;-51
2020/12/12 01:52:50;;;;;;;20.38;9.10;;;8.60;88.00;;;;;;5034503;28;20115;-51
2020/12/12 01:55:22;;;;;;;18.45;8.45;;;8.60;88.20;;;;;;5027556;28;20356;-50
2020/12/12 01:57:52;;;;;;;21.00;8.38;;;8.60;88.10;;;;;;5034811;28;20045;-51
2020/12/12 02:00:19;;;;;;;26.20;10.00;;;8.60;88.10;;;;;;5019059;28;20034;-50
2020/12/12 02:02:52;;;;;;;20.13;8.82;;;8.50;88.20;;;;;;5014911;28;20033;-51
2020/12/12 02:05:43;;;;;;;23.00;9.70;;;8.60;88.10;;;;;;5014828;28;20065;-51
2020/12/12 02:08:17;;;;;;;23.25;10.45;;;8.60;88.20;;;;;;5014462;28;20040;-51
2020/12/12 02:10:48;;;;;;;30.90;10.38;;;8.60;88.20;;;;;;5025262;28;20021;-51
2020/12/12 02:13:15;;;;;;;23.50;9.32;;;8.60;88.20;;;;;;5031436;28;20049;-50
2020/12/12 02:15:41;;;;;;;21.40;9.60;;;8.60;88.20;;;;;;5030634;28;20025;-51
2020/12/12 02:18:18;;;;;;;21.17;8.60;;;8.60;88.20;;;;;;5034039;28;20030;-51
2020/12/12 02:20:53;;;;;;;19.90;8.80;;;8.60;88.20;;;;;;5034513;28;20109;-50
2020/12/12 02:23:22;;;;;;;19.85;9.45;;;8.60;88.20;;;;;;5034493;28;20108;-51
2020/12/12 02:25:48;;;;;;;20.27;9.13;;;8.60;88.30;;;;;;5017660;28;20104;-50
2020/12/12 02:28:17;;;;;;;20.02;10.07;;;8.60;88.30;;;;;;5033890;28;20026;-51
2020/12/12 02:30:44;;;;;;;20.92;9.80;;;8.60;88.30;;;;;;5033967;28;20026;-50
2020/12/12 02:33:10;;;;;;;22.77;9.20;;;8.60;88.30;;;;;;5021459;28;20072;-51
2020/12/12 02:35:35;;;;;;;20.20;8.48;;;8.60;88.30;;;;;;5028713;28;20038;-51
2020/12/12 02:38:01;;;;;;;16.83;7.50;;;8.60;88.30;;;;;;5033725;28;20079;-51
2020/12/12 02:40:27;;;;;;;18.10;8.23;;;8.60;88.40;;;;;;5034400;28;20048;-50
2020/12/12 02:42:52;;;;;;;22.92;10.32;;;8.60;88.40;;;;;;5018660;28;20368;-51
2020/12/12 02:45:19;;;;;;;21.77;9.43;;;8.60;88.50;;;;;;5025445;28;20418;-51
2020/12/12 02:47:46;;;;;;;27.90;10.52;;;8.60;88.40;;;;;;5016055;28;20058;-51
2020/12/12 02:50:13;;;;;;;23.63;10.73;;;8.60;88.40;;;;;;5027828;28;20091;-50
2020/12/12 02:52:41;;;;;;;28.17;10.57;;;8.60;88.50;;;;;;5037340;28;20033;-51
2020/12/12 02:55:08;;;;;;;24.08;10.32;;;8.60;88.40;;;;;;5026077;28;20034;-51
2020/12/12 02:57:36;;;;;;;27.50;11.82;;;8.60;88.40;;;;;;5017828;28;20022;-51
2020/12/12 03:00:07;;;;;;;22.55;10.00;;;8.60;88.50;;;;;;5020912;28;20029;-51
2020/12/12 03:02:33;;;;;;;25.83;9.55;;;8.60;88.50;;;;;;5037857;28;20044;-50
2020/12/12 03:04:58;;;;;;;23.75;9.65;;;8.60;88.60;;;;;;5025622;28;20391;-51
2020/12/12 03:07:24;;;;;;;22.67;9.18;;;8.60;88.60;;;;;;5018033;28;20026;-51
2020/12/12 03:09:49;;;;;;;19.90;8.30;;;8.60;88.60;;;;;;5017720;28;20026;-51
2020/12/12 03:12:15;;;;;;;20.35;8.68;;;8.60;88.50;;;;;;5017395;28;20121;-51
2020/12/12 03:14:41;;;;;;;23.40;9.80;;;8.60;88.50;;;;;;5031332;28;20037;-51
2020/12/12 03:17:09;;;;;;;23.63;9.02;;;8.60;88.60;;;;;;5037422;28;20075;-50
2020/12/12 03:19:38;;;;;;;21.48;9.50;;;8.60;88.60;;;;;;5036843;28;20447;-51
2020/12/12 03:22:04;;;;;;;21.00;9.65;;;8.60;88.50;;;;;;5037327;28;20159;-51
2020/12/12 03:24:30;;;;;;;25.95;10.38;;;8.60;88.60;;;;;;5029388;28;20515;-51
2020/12/12 03:26:56;;;;;;;18.08;8.35;;;8.60;88.70;;;;;;5017131;28;20117;-50
2020/12/12 03:29:21;;;;;;;20.30;8.70;;;8.60;88.70;;;;;;5031538;28;20033;-51
2020/12/12 03:31:47;;;;;;;16.95;7.85;;;8.60;88.70;;;;;;5036855;28;20064;-51
2020/12/12 03:34:12;;;;;;;16.08;7.78;;;8.60;88.90;;;;;;5032470;28;20034;-51
2020/12/12 03:36:38;;;;;;;18.75;7.28;;;8.60;88.70;;;;;;5016977;28;20061;-51
2020/12/12 03:39:04;;;;;;;15.13;6.75;;;8.60;88.80;;;;;;5017140;28;20433;-51
2020/12/12 03:41:29;;;;;;;19.80;7.93;;;8.60;88.80;;;;;;5032770;28;20033;-50
2020/12/12 03:43:55;;;;;;;15.82;8.57;;;8.60;88.80;;;;;;5034717;28;20059;-51
2020/12/12 03:46:21;;;;;;;20.65;9.00;;;8.60;88.70;;;;;;5016908;28;20068;-51
2020/12/12 03:48:46;;;;;;;15.15;7.57;;;8.60;88.90;;;;;;5027436;28;20029;-51
2020/12/12 03:51:12;;;;;;;15.20;7.10;;;8.60;88.90;;;;;;5032145;28;20033;-50
2020/12/12 03:53:38;;;;;;;15.95;6.70;;;8.60;88.80;;;;;;5036425;28;20442;-51
2020/12/12 03:56:03;;;;;;;16.17;7.20;;;8.60;88.90;;;;;;5032555;28;20025;-51
2020/12/12 03:58:29;;;;;;;16.55;8.82;;;8.60;88.80;;;;;;5016435;28;20447;-51
2020/12/12 04:00:55;;;;;;;24.83;8.80;;;8.60;88.80;;;;;;5016525;28;20125;-51
2020/12/12 04:03:21;;;;;;;21.08;8.70;;;8.60;88.90;;;;;;5017136;28;20022;-51
2020/12/12 04:05:47;;;;;;;21.65;8.95;;;8.60;88.90;;;;;;5032626;28;20029;-51
2020/12/12 04:08:14;;;;;;;18.83;8.65;;;8.60;88.90;;;;;;5033267;28;20410;-51
2020/12/12 04:10:39;;;;;;;20.05;9.45;;;8.60;88.90;;;;;;5016317;28;20026;-51
2020/12/12 04:13:05;;;;;;;20.38;8.35;;;8.60;88.90;;;;;;5017869;28;20029;-51
2020/12/12 04:15:31;;;;;;;20.05;9.13;;;8.60;88.90;;;;;;5035413;28;20109;-51
2020/12/12 04:17:57;;;;;;;22.05;9.32;;;8.60;89.00;;;;;;5035976;28;20359;-51
2020/12/12 04:20:22;;;;;;;25.80;10.65;;;8.60;89.00;;;;;;5036114;28;20033;-50
2020/12/12 04:22:48;;;;;;;28.25;9.18;;;8.60;89.00;;;;;;5035463;28;20102;-51
2020/12/12 04:25:14;;;;;;;20.30;8.93;;;8.60;89.00;;;;;;5024044;28;20449;-51
2020/12/12 04:27:42;;;;;;;15.65;7.85;;;8.60;88.90;;;;;;5016007;28;20038;-51
2020/12/12 04:30:08;;;;;;;26.63;9.68;;;8.60;89.10;;;;;;5016468;28;20109;-51
2020/12/12 04:32:33;;;;;;;17.58;6.85;;;8.60;89.00;;;;;;5016105;28;20037;-51
2020/12/12 04:34:59;;;;;;;14.60;6.22;;;8.60;89.00;;;;;;5016752;28;20041;-51
2020/12/12 04:37:24;;;;;;;19.55;7.50;;;8.60;89.00;;;;;;5025625;28;20033;-51
2020/12/12 04:39:50;;;;;;;22.38;8.85;;;8.60;89.00;;;;;;5035185;28;20044;-51
2020/12/12 04:42:17;;;;;;;21.27;8.93;;;8.60;89.10;;;;;;5035824;28;20043;-51
2020/12/12 04:44:43;;;;;;;18.90;8.23;;;8.60;89.10;;;;;;5029033;28;20036;-51
2020/12/12 04:47:10;;;;;;;18.17;7.65;;;8.60;89.10;;;;;;5051949;28;20340;-51
2020/12/12 04:49:36;;;;;;;17.17;7.97;;;8.60;89.10;;;;;;5031214;28;20037;-51
2020/12/12 04:52:05;;;;;;;21.75;9.07;;;8.60;89.10;;;;;;5015550;28;20028;-51
2020/12/12 04:54:33;;;;;;;17.48;9.65;;;8.60;89.20;;;;;;5026929;28;20033;-51
2020/12/12 04:57:06;;;;;;;18.55;6.95;;;8.60;89.20;;;;;;5015592;28;20026;-51
2020/12/12 04:59:33;;;;;;;16.70;7.95;;;8.60;89.20;;;;;;5015564;28;20041;-51
2020/12/12 05:02:00;;;;;;;20.40;7.65;;;8.60;89.30;;;;;;5024176;28;20029;-50
2020/12/12 05:04:26;;;;;;;20.85;8.68;;;8.60;89.10;;;;;;5038043;28;20072;-51
2020/12/12 05:06:52;;;;;;;21.00;9.15;;;8.60;89.20;;;;;;5021311;28;20061;-51
2020/12/12 05:09:17;;;;;;;21.20;9.13;;;8.60;89.20;;;;;;5035248;28;20029;-50
2020/12/12 05:11:47;;;;;;;24.10;9.07;;;8.60;89.10;;;;;;5040124;28;20346;-51
2020/12/12 05:14:17;;;;;;;19.75;9.75;;;8.60;89.20;;;;;;5043517;28;20163;-51
2020/12/12 05:16:46;;;;;;;16.27;8.10;;;8.60;89.20;;;;;;5040017;28;20017;-51
2020/12/12 05:19:13;;;;;;;20.20;8.60;;;8.60;89.20;;;;;;5026440;28;20375;-51
2020/12/12 05:21:46;;;;;;;23.83;8.70;;;8.60;89.20;;;;;;5015099;28;20037;-51
2020/12/12 05:24:11;;;;;;;21.20;8.30;;;8.60;89.30;;;;;;5019317;28;20087;-51
2020/12/12 05:26:37;;;;;;;17.23;7.47;;;8.60;89.30;;;;;;5042067;28;20438;-51
2020/12/12 05:29:05;;;;;;;16.85;6.97;;;8.60;89.10;;;;;;5048090;28;20029;-51
2020/12/12 05:31:30;;;;;;;21.10;7.20;;;8.60;89.10;;;;;;5054811;28;20071;-51
2020/12/12 05:33:56;;;;;;;25.42;9.88;;;8.60;89.20;;;;;;5016288;28;20061;-51
2020/12/12 05:36:29;;;;;;;25.77;9.82;;;8.60;89.20;;;;;;5034842;28;20033;-51
2020/12/12 05:38:58;;;;;;;18.23;8.65;;;8.60;89.20;;;;;;5034634;28;20367;-51
2020/12/12 05:41:26;;;;;;;22.27;8.60;;;8.60;89.10;;;;;;5034826;28;20052;-51
2020/12/12 05:43:52;;;;;;;19.92;8.50;;;8.60;89.40;;;;;;5033749;28;20136;-51
2020/12/12 05:46:22;;;;;;;15.63;7.45;;;8.60;89.20;;;;;;5033288;28;20033;-51
2020/12/12 05:48:47;;;;;;;21.13;8.70;;;8.70;89.30;;;;;;5054642;28;20028;-51
2020/12/12 05:51:15;;;;;;;20.48;9.02;;;8.60;89.10;;;;;;5022241;28;20030;-51
2020/12/12 05:53:43;;;;;;;19.38;8.70;;;8.70;89.60;;;;;;5014768;28;20037;-51
2020/12/12 05:56:11;;;;;;;16.30;6.25;;;8.60;89.20;;;;;;5032378;28;20038;-51
2020/12/12 05:58:43;;;;;;;17.02;7.88;;;8.70;89.30;;;;;;5035530;28;20025;-51
2020/12/12 06:01:17;;;;;;;21.60;9.02;;;8.60;89.20;;;;;;5019792;28;20071;-51
2020/12/12 06:03:53;;;;;;;20.63;8.95;;;8.70;89.50;;;;;;5025280;28;20021;-51
2020/12/12 06:06:22;;;;;;;22.48;10.15;;;8.70;89.30;;;;;;5023340;28;20051;-51
2020/12/12 06:08:58;;;;;;;27.90;11.23;;;8.60;89.40;;;;;;5025829;28;20022;-51
2020/12/12 06:11:23;;;;;;;23.52;8.30;;;8.60;89.20;;;;;;5025133;28;20021;-51
2020/12/12 06:13:49;;;;;;;22.75;9.80;;;8.70;89.50;;;;;;5021063;28;20048;-51
2020/12/12 06:16:17;;;;;;;20.58;10.07;;;8.60;89.20;;;;;;5031756;28;20029;-51
2020/12/12 06:18:55;;;;;;;18.35;8.35;;;8.70;89.70;;;;;;5034334;28;20034;-51
2020/12/12 06:21:25;;;;;;;22.02;7.85;;;8.70;89.50;;;;;;5034915;28;20025;-51
2020/12/12 06:23:52;;;;;;;19.60;7.95;;;8.70;89.50;;;;;;5026955;28;20507;-51
2020/12/12 06:26:25;;;;;;;26.45;8.32;;;8.70;89.40;;;;;;5018272;28;20367;-51
2020/12/12 06:28:54;;;;;;;19.23;8.30;;;8.70;89.40;;;;;;5036949;28;20033;-51
2020/12/12 06:31:20;;;;;;;18.90;8.10;;;8.70;89.50;;;;;;5037918;28;20033;-51
2020/12/12 06:33:51;;;;;;;16.38;7.65;;;8.70;89.30;;;;;;5031173;28;20026;-52
2020/12/12 06:36:23;;;;;;;23.50;9.05;;;8.70;89.30;;;;;;5030087;28;20451;-51
2020/12/12 06:38:49;;;;;;;21.38;8.30;;;8.70;89.60;;;;;;5034020;28;20060;-51
2020/12/12 06:41:32;;;;;;;20.42;7.15;;;8.70;89.40;;;;;;5035430;28;20037;-51
2020/12/12 06:43:58;;;;;;;23.75;9.00;;;8.70;89.30;;;;;;5035607;28;20087;-51
2020/12/12 06:46:51;;;;;;;25.10;9.63;;;8.70;89.40;;;;;;5036533;28;20451;-51
2020/12/12 06:49:16;;;;;;;21.95;9.02;;;8.70;89.50;;;;;;5043986;28;20030;-51
2020/12/12 06:51:42;;;;;;;20.40;7.60;;;8.70;89.40;;;;;;5031141;28;20080;-51
2020/12/12 06:54:08;;;;;;;16.08;8.48;;;8.70;89.50;;;;;;5031377;28;20399;-51
2020/12/12 06:56:34;;;;;;;22.55;8.73;;;8.70;89.30;;;;;;5026992;28;20458;-51
2020/12/12 06:59:24;;;;;;;23.38;9.07;;;8.70;89.50;;;;;;5027436;28;20021;-51
2020/12/12 07:02:11;;;;;;;18.80;7.65;;;8.70;89.50;;;;;;5043443;28;20024;-51
2020/12/12 07:04:38;;;;;;;19.70;8.73;;;8.70;89.40;;;;;;5027832;28;20038;-51
2020/12/12 07:07:11;;;;;;;17.38;7.97;;;8.70;89.50;;;;;;5037339;28;20442;-52
2020/12/12 07:09:41;;;;;;;17.75;5.95;;;8.70;89.50;;;;;;5031824;28;20021;-51
2020/12/12 07:12:08;;;;;;;12.27;6.88;;;8.70;89.50;;;;;;5037283;28;20083;-52
2020/12/12 07:14:36;;;;;;;21.75;7.80;;;8.50;88.50;;;;;;5023184;28;20558;-53
2020/12/12 07:17:02;;;;;;;21.45;7.60;;;8.30;88.40;;;;;;5024834;28;20367;-53
2020/12/12 07:19:33;;;;;;;16.75;7.97;;;8.40;89.30;;;;;;5035193;28;20038;-53
2020/12/12 07:22:00;;;;;;;18.15;8.55;;;8.40;88.70;;;;;;5025568;28;20032;-53
2020/12/12 07:24:27;;;;;;;19.88;8.77;;;8.50;88.20;;;;;;5027432;28;20103;-53
2020/12/12 07:26:54;;;;;;;18.20;7.57;;;8.50;87.70;;;;;;5031783;28;20107;-53
2020/12/12 07:29:20;;;;;;;16.23;9.13;;;8.50;87.50;;;;;;5025558;28;20033;-53
2020/12/12 07:31:46;;;;;;;16.02;6.40;;;8.50;87.50;;;;;;5034084;28;20041;-53
2020/12/12 07:34:19;;;;;;;21.20;8.30;;;8.50;87.30;;;;;;5027087;28;20018;-53
2020/12/12 07:36:45;;;;;;;20.55;8.25;;;8.50;87.20;;;;;;5027299;28;20390;-53
2020/12/12 07:39:12;;;;;;;15.63;7.90;;;8.50;87.20;;;;;;5028020;28;20471;-52
2020/12/12 07:41:44;;;;;;;16.63;7.97;;;8.50;87.30;;;;;;5025165;28;20037;-53
2020/12/12 07:44:10;;;;;;;21.60;8.35;;;8.50;87.10;;;;;;5040434;28;20433;-53
2020/12/12 07:46:40;;;;;;;20.58;8.38;;;8.50;87.00;;;;;;5039679;28;20033;-53
2020/12/12 07:49:10;;;;;;;21.73;8.68;;;8.50;87.20;;;;;;5037987;28;20045;-53
2020/12/12 07:51:35;;;;;;;15.50;8.02;;;8.50;87.00;;;;;;5049554;28;20048;-53
2020/12/12 07:54:18;;;;;;;18.83;8.55;;;8.50;86.90;;;;;;5032760;28;20451;-53
2020/12/12 07:56:51;;;;;;;22.83;8.00;;;8.50;87.00;;;;;;5037406;28;20461;-53
2020/12/12 07:59:20;;;;;;;21.10;8.38;;;8.50;87.00;;;;;;5034217;28;20036;-53
2020/12/12 08:01:50;;;;;;;19.52;8.63;;;8.50;87.00;;;;;;5024674;28;20408;-53
2020/12/12 08:04:23;;;;;;;18.75;8.15;;;8.50;87.00;;;;;;5031654;28;20568;-53
2020/12/12 08:06:49;;;;;;;16.42;7.82;;;8.50;87.10;;;;;;5048033;28;20025;-53
2020/12/12 08:09:20;;;;;;;16.52;7.40;;;8.50;86.80;;;;;;5035517;28;20072;-53
2020/12/12 08:11:58;;;;;;;15.60;7.65;;;8.60;87.10;;;;;;5031298;28;20026;-53
2020/12/12 08:14:25;;;;;;;20.42;7.90;;;8.50;86.90;;;;;;5028326;28;20044;-53
2020/12/12 08:17:01;;;;;;;15.25;7.18;;;8.60;86.90;;;;;;5023937;28;20037;-53
2020/12/12 08:19:28;;;;;;;17.75;7.40;;;8.60;87.00;;;;;;5027543;28;20079;-53
2020/12/12 08:22:14;;;;;;;13.93;7.10;;;8.60;87.80;;;;;;5035996;28;20029;-53
2020/12/12 08:24:42;;;;;;;21.17;10.85;;;8.60;87.10;;;;;;5018449;28;20038;-53
2020/12/12 08:27:16;;;;;;;18.92;8.13;;;8.60;87.00;;;;;;5021846;28;20447;-53
2020/12/12 08:29:53;;;;;;;21.38;8.35;;;8.60;87.00;;;;;;5035288;28;20037;-53
2020/12/12 08:32:39;;;;;;;16.90;7.75;;;8.60;87.00;;;;;;5032616;28;20087;-53
2020/12/12 08:35:15;;;;;;;18.55;8.48;;;8.60;86.90;;;;;;5025524;28;20411;-53
2020/12/12 08:37:56;;;;;;;16.40;8.57;;;8.60;87.10;;;;;;5035979;28;20025;-53
2020/12/12 08:40:31;;;;;;;16.52;6.35;;;8.60;87.10;;;;;;5047400;28;20459;-53
2020/12/12 08:43:06;;;;;;;21.10;7.55;;;8.60;87.20;;;;;;5039424;28;20099;-53
2020/12/12 08:45:39;;;;;;;17.50;7.65;;;8.60;87.00;;;;;;5037889;28;20036;-53
2020/12/12 08:48:13;;;;;;;18.65;7.25;;;8.60;87.00;;;;;;5024073;28;20054;-53
2020/12/12 08:50:54;;;;;;;20.85;8.43;;;8.60;87.10;;;;;;5021436;28;20029;-53
2020/12/12 08:53:39;;;;;;;19.45;8.27;;;8.60;87.00;;;;;;5026811;28;20124;-53
2020/12/12 08:56:12;;;;;;;19.35;8.13;;;8.60;87.00;;;;;;5022777;28;20030;-53
2020/12/12 08:58:38;;;;;;;20.58;9.02;;;8.60;87.10;;;;;;5027599;28;20339;-53
2020/12/12 09:01:13;;;;;;;20.30;8.43;;;8.70;87.20;;;;;;5021079;28;20474;-53
2020/12/12 09:04:14;;;;;;;17.58;8.23;;;8.60;87.20;;;;;;5023861;28;20037;-53
2020/12/12 09:06:43;;;;;;;23.67;9.20;;;8.70;87.20;;;;;;5036349;28;20478;-53
2020/12/12 09:09:13;;;;;;;15.13;7.55;;;8.70;87.20;;;;;;5019677;28;20041;-53
2020/12/12 09:12:02;;;;;;;21.25;6.65;;;8.70;87.10;;;;;;5024738;28;20044;-53
2020/12/12 09:14:33;;;;;;;18.67;7.30;;;8.70;87.30;;;;;;5030265;28;20026;-53
2020/12/12 09:17:04;;;;;;;19.13;7.68;;;8.70;87.00;;;;;;5033042;28;20648;-53
2020/12/12 09:19:30;;;;;;;18.23;7.40;;;8.70;87.00;;;;;;5023486;28;20065;-53
2020/12/12 09:22:00;;;;;;;15.95;6.20;;;8.70;87.00;;;;;;5023669;28;20108;-53
2020/12/12 09:24:26;;;;;;;19.58;7.93;;;8.70;87.20;;;;;;5020349;28;20378;-53
2020/12/12 09:26:56;;;;;;;14.18;6.18;;;8.70;87.00;;;;;;5028230;28;20037;-53
2020/12/12 09:29:22;;;;;;;20.13;7.90;;;8.70;87.00;;;;;;5030804;28;20033;-53
2020/12/12 09:31:50;;;;;;;17.58;7.50;;;8.70;87.10;;;;;;5020890;28;20051;-53
2020/12/12 09:34:17;;;;;;;18.80;7.78;;;8.70;87.00;;;;;;5025936;28;20025;-53
2020/12/12 09:36:42;;;;;;;16.13;7.78;;;8.70;87.00;;;;;;5023014;28;20049;-53
2020/12/12 09:39:08;;;;;;;16.92;8.20;;;8.70;87.00;;;;;;5020084;28;20115;-53
2020/12/12 09:41:34;;;;;;;18.17;7.95;;;8.70;87.00;;;;;;5021795;28;20022;-53
2020/12/12 09:43:59;;;;;;;15.95;6.85;;;8.70;86.80;;;;;;5024503;28;20026;-53
2020/12/12 09:46:25;;;;;;;19.23;8.85;;;8.70;86.90;;;;;;5027639;28;20025;-53
2020/12/12 09:48:51;;;;;;;21.13;8.85;;;8.70;87.00;;;;;;5030566;28;20026;-53
2020/12/12 09:51:17;;;;;;;20.13;8.02;;;8.70;87.00;;;;;;5022199;28;20116;-52
2020/12/12 09:53:44;;;;;;;19.90;8.55;;;8.70;87.00;;;;;;5022884;28;20088;-53
2020/12/12 09:56:14;;;;;;;18.35;7.82;;;8.70;87.10;;;;;;5034810;28;20052;-53
2020/12/12 09:58:41;;;;;;;19.13;8.77;;;8.80;87.10;;;;;;5033959;28;20108;-53
2020/12/12 10:01:07;;;;;;;21.60;10.02;;;8.80;87.20;;;;;;5027659;28;20466;-53
2020/12/12 10:03:33;;;;;;;22.13;8.07;;;8.80;87.30;;;;;;5024154;28;20025;-53
2020/12/12 10:05:59;;;;;;;21.95;8.93;;;8.80;87.40;;;;;;5019767;28;20038;-53
2020/12/12 10:08:24;;;;;;;20.98;8.85;;;8.80;87.30;;;;;;5023320;28;20406;-53
2020/12/12 10:10:51;;;;;;;21.67;8.55;;;8.90;87.50;;;;;;5019686;28;20037;-53
2020/12/12 10:13:17;;;;;;;19.00;9.27;;;8.90;87.50;;;;;;5024483;28;20030;-53
2020/12/12 10:15:43;;;;;;;19.35;7.78;;;8.90;87.30;;;;;;5021327;28;20029;-53
2020/12/12 10:18:08;;;;;;;18.73;7.93;;;8.90;87.30;;;;;;5017196;28;20066;-53
2020/12/12 10:20:36;;;;;;;19.92;8.32;;;8.90;87.60;;;;;;5021946;28;20512;-53
2020/12/12 10:23:03;;;;;;;15.70;5.40;;;8.90;87.70;;;;;;5025794;28;20061;-53
2020/12/12 10:25:28;;;;;;;17.23;6.88;;;8.90;87.40;;;;;;5021592;28;20038;-53
2020/12/12 10:27:56;;;;;;;15.70;8.73;;;8.90;87.30;;;;;;5020364;28;20029;-53
2020/12/12 10:30:22;;;;;;;13.80;7.10;;;8.90;87.30;;;;;;5023715;28;20030;-53
2020/12/12 10:32:48;;;;;;;19.80;7.55;;;8.90;87.30;;;;;;5024745;28;20030;-53
2020/12/12 10:35:15;;;;;;;20.88;8.82;;;8.90;87.50;;;;;;5030591;28;20025;-53
2020/12/12 10:37:40;;;;;;;17.55;7.70;;;8.90;87.30;;;;;;5017526;28;20030;-53
2020/12/12 10:42:36;;;;;;;15.15;6.03;;;8.90;87.20;;;;;;5025550;28;20076;-53
2020/12/12 10:45:03;;;;;;;18.83;7.22;;;9.00;87.60;;;;;;5023287;28;20026;-53
2020/12/12 10:47:29;;;;;;;15.50;8.38;;;9.00;87.40;;;;;;5027385;28;20410;-53
2020/12/12 10:49:55;;;;;;;20.08;7.75;;;9.00;87.50;;;;;;5025028;28;20022;-53
2020/12/12 10:52:21;;;;;;;19.77;8.05;;;9.00;87.70;;;;;;5028613;28;20025;-53
2020/12/12 10:54:49;;;;;;;12.77;6.85;;;9.00;87.50;;;;;;5019460;28;20038;-53
2020/12/12 10:57:14;;;;;;;14.80;6.25;;;9.00;88.10;;;;;;5030366;28;20022;-53
2020/12/12 10:59:42;;;;;;;13.07;6.63;;;9.00;87.70;;;;;;5018360;28;20034;-53
2020/12/12 11:02:10;;;;;;;17.75;7.43;;;9.00;88.00;;;;;;5024268;28;20026;-53
2020/12/12 11:04:35;;;;;;;15.18;7.95;;;9.00;87.70;;;;;;5033509;28;20037;-53
2020/12/12 11:07:01;;;;;;;12.10;6.80;;;9.00;87.90;;;;;;5022464;28;20372;-53
2020/12/12 11:09:27;;;;;;;17.77;6.95;;;9.00;88.10;;;;;;5026823;28;20028;-53
2020/12/12 11:11:53;;;;;;;15.48;7.10;;;9.00;88.30;;;;;;5019704;28;20025;-53
2020/12/12 11:14:18;;;;;;;14.25;6.50;;;9.00;88.10;;;;;;5026900;28;20348;-53
2020/12/12 11:16:44;;;;;;;19.45;6.93;;;9.00;87.90;;;;;;5035078;28;20025;-53
2020/12/12 11:19:10;;;;;;;13.90;6.13;;;9.00;89.00;;;;;;5034079;28;20409;-53
2020/12/12 11:21:36;;;;;;;13.43;7.07;;;9.00;87.90;;;;;;5033221;28;20109;-53
2020/12/12 11:24:06;;;;;;;11.70;5.88;;;9.00;88.10;;;;;;5027044;28;20447;-53
2020/12/12 11:26:31;;;;;;;14.25;5.90;;;9.00;88.20;;;;;;5016968;28;20057;-53
2020/12/12 11:28:57;;;;;;;10.75;4.82;;;9.00;87.90;;;;;;5021178;28;20037;-53
2020/12/12 11:31:23;;;;;;;13.55;6.15;;;9.00;88.30;;;;;;5033576;28;20014;-53
2020/12/12 11:34:05;;;;;;;10.90;5.57;;;9.00;87.80;;;;;;5022708;28;20117;-53
2020/12/12 11:36:43;;;;;;;13.73;4.43;;;9.00;88.10;;;;;;5025151;28;20117;-53
2020/12/12 11:42:10;;;;;;;9.35;4.45;;;9.10;88.70;;;;;;5033200;28;20110;-53
2020/12/12 11:47:25;;;;;;;9.75;4.60;;;9.00;88.50;;;;;;5022017;28;20133;-53
2020/12/12 11:49:51;;;;;;;10.50;5.05;;;9.00;88.10;;;;;;5026907;28;20444;-53
2020/12/12 11:52:17;;;;;;;9.07;4.63;;;9.00;88.60;;;;;;5026021;28;20038;-53
2020/12/12 11:54:43;;;;;;;13.07;5.30;;;9.00;88.60;;;;;;5022104;28;20558;-53
2020/12/12 11:57:08;;;;;;;10.57;5.15;;;9.10;88.70;;;;;;5017990;28;20021;-53
2020/12/12 11:59:34;;;;;;;6.65;3.92;;;9.00;88.20;;;;;;5024245;28;20042;-53
2020/12/12 12:02:00;;;;;;;7.53;4.22;;;9.10;88.30;;;;;;5022346;28;20026;-53
2020/12/12 12:04:25;;;;;;;9.27;4.53;;;9.00;88.60;;;;;;5024393;28;20041;-53
2020/12/12 12:06:52;;;;;;;8.88;4.32;;;9.00;88.40;;;;;;5024692;28;20049;-53
2020/12/12 12:09:23;;;;;;;6.25;2.85;;;9.00;87.80;;;;;;5024806;28;20073;-53
2020/12/12 12:11:50;;;;;;;5.13;3.03;;;9.00;88.90;;;;;;5037570;28;20092;-53
2020/12/12 12:14:16;;;;;;;4.95;2.88;;;9.00;89.00;;;;;;5026088;28;20029;-53
2020/12/12 12:16:42;;;;;;;6.68;3.70;;;9.00;89.00;;;;;;5026356;28;20052;-53
2020/12/12 12:19:15;;;;;;;7.55;3.45;;;9.00;88.50;;;;;;5031429;28;20033;-53
2020/12/12 12:21:47;;;;;;;4.32;2.60;;;9.00;88.70;;;;;;5032655;28;20124;-53
2020/12/12 12:24:15;;;;;;;6.95;3.22;;;9.00;88.30;;;;;;5026499;28;20033;-53
2020/12/12 12:26:41;;;;;;;6.72;2.92;;;9.00;88.90;;;;;;5027566;28;20030;-53
2020/12/12 12:29:10;;;;;;;6.10;2.78;;;9.00;89.30;;;;;;5018333;28;20072;-53
2020/12/12 12:31:36;;;;;;;6.80;2.95;;;9.00;89.00;;;;;;5022405;28;20029;-53
2020/12/12 12:34:02;;;;;;;3.17;2.10;;;9.00;89.10;;;;;;5022872;28;20038;-53
2020/12/12 12:36:29;;;;;;;4.75;2.65;;;9.00;88.20;;;;;;5025526;28;20013;-53
2020/12/12 12:38:56;;;;;;;5.32;2.95;;;9.00;89.10;;;;;;5026054;28;20030;-53
2020/12/12 12:41:24;;;;;;;7.40;3.47;;;9.00;88.60;;;;;;5021008;28;20454;-53
2020/12/12 12:43:51;;;;;;;5.38;2.70;;;9.00;89.10;;;;;;5022645;28;20026;-53
2020/12/12 12:46:18;;;;;;;5.40;3.10;;;9.00;88.70;;;;;;5025268;28;20038;-53
2020/12/12 12:48:43;;;;;;;6.90;2.75;;;9.00;89.10;;;;;;5021714;28;20084;-53
2020/12/12 12:51:10;;;;;;;6.10;3.05;;;9.00;88.10;;;;;;5024778;28;20392;-53
2020/12/12 12:53:36;;;;;;;6.68;3.30;;;9.00;88.60;;;;;;5018863;28;20076;-53
2020/12/12 12:56:01;;;;;;;4.45;2.40;;;9.00;88.50;;;;;;5027746;28;20057;-53
2020/12/12 12:58:27;;;;;;;7.10;3.60;;;9.00;88.00;;;;;;5023042;28;20030;-53